RUNWAY INFORMATION
Runway Length Width Elevation Displaced
Threshold
Heading | Runway Length Width Elevation Displaced
Threshold
Heading
12 7848 ft 151 ft 205 ft 797 ft 117 | 30 7848 ft 151 ft 213 ft 551 ft 297

 AIRPORT FREQUENCIES
Type APP Name Cardiff Ap Frequency 119.15 MHZ
Type APP Name Cardiff Ra Frequency 125.85 MHZ
Type ATIS Name ATIS Frequency 132.475 MHZ
Type Radar Name Frequency 133.6 MHZ
Type TWR Name Cardiff Tw Frequency 133.1 MHZ

 AIRPORT NEAR NAVIGATION AIDS

 METAR AND TAF INFORMATION
METAR FOR EGFF
ADDS - METARS form results

(0731 UTC 15 June 2021)
Data provider http://aviationweather.gov/metar/data/
 
METAR text: EGFF 150720Z AUTO 08009KT 9999 NCD 15/09 Q1023
Conditions at: EGFF (CARDIFF-WALES AR, GB) observed 0720 UTC 15 June 2021
Temperature: 15.0°C (59°F)
Dewpoint: 9.0°C (48°F) [RH = 67%]
Pressure (altimeter): 30.21 inches Hg (1023.0 mb)
Winds: from the E (80 degrees) at 10 MPH (9 knots; 4.6 m/s)
Visibility: 6 or more miles (10+ km)
Ceiling: at least 12,000 feet AGL
Clouds: sky clear below 12,000 feet AGL
Weather: no significant weather observed at this time

METAR text: EGFF 150650Z AUTO 06008KT 9999 NCD 14/09 Q1023
Conditions at: EGFF (CARDIFF-WALES AR, GB) observed 0650 UTC 15 June 2021
Temperature: 14.0°C (57°F)
Dewpoint: 9.0°C (48°F) [RH = 72%]
Pressure (altimeter): 30.21 inches Hg (1023.0 mb)
Winds: from the ENE (60 degrees) at 9 MPH (8 knots; 4.1 m/s)
Visibility: 6 or more miles (10+ km)
Ceiling: at least 12,000 feet AGL
Clouds: sky clear below 12,000 feet AGL
Weather: no significant weather observed at this time

Forecast for: EGFF (CARDIFF-WALES AR, GB)
Text: TAF EGFF 150458Z 1506/1606 03004KT 9999 FEW040
Forecast period: 0600 to 1200 UTC 15 June 2021
Forecast type: FROM: standard forecast or significant change
Winds: from the NNE (30 degrees) at 5 MPH (4 knots; 2.1 m/s)
Visibility: 6 or more miles (10+ km)
Ceiling: at least 12,000 feet AGL
Clouds: few clouds at 4000 feet AGL
Weather: no significant weather forecast for this period
Text: BECMG 1512/1515 28010KT
Forecast period: 1200 to 2100 UTC 15 June 2021
Forecast type: BECOMING: Conditions expected to become as follows by 1500 UTC 15 June 2021
Winds: from the W (280 degrees) at 12 MPH (10 knots; 5.1 m/s)
Visibility: 6 or more miles (10+ km)
Ceiling: at least 12,000 feet AGL
Clouds: few clouds at 4000 feet AGL
Weather: no significant weather forecast for this period
Text: BECMG 1521/1524 34004KT
Forecast period: 2100 UTC 15 June 2021 to 0600 UTC 16 June 2021
Forecast type: BECOMING: Conditions expected to become as follows by 0000 UTC 16 June 2021
Winds: from the NNW (340 degrees) at 5 MPH (4 knots; 2.1 m/s)
Visibility: 6 or more miles (10+ km)
Ceiling: at least 12,000 feet AGL
Clouds: few clouds at 4000 feet AGL
Weather: no significant weather forecast for this period



© 2013 - 2021, FlightSimLog.org - Powered by Virtual Airlines Manager